sensor_id;sensor_type;location;lat;lon;timestamp;temperature;humidity
17797;DHT22;55596;53.554;9.916;2023-01-28T00:01:08;1.90;99.90
17797;DHT22;55596;53.554;9.916;2023-01-28T00:03:36;1.90;99.90
17797;DHT22;55596;53.554;9.916;2023-01-28T00:06:06;1.90;99.90
17797;DHT22;55596;53.554;9.916;2023-01-28T00:08:33;1.90;99.90
17797;DHT22;55596;53.554;9.916;2023-01-28T00:11:04;1.80;99.90
17797;DHT22;55596;53.554;9.916;2023-01-28T00:13:32;2.60;99.90
17797;DHT22;55596;53.554;9.916;2023-01-28T00:16:01;1.90;99.90
17797;DHT22;55596;53.554;9.916;2023-01-28T00:18:29;1.80;99.90
17797;DHT22;55596;53.554;9.916;2023-01-28T00:21:00;1.80;99.90
17797;DHT22;55596;53.554;9.916;2023-01-28T00:23:28;-1.30;99.90
17797;DHT22;55596;53.554;9.916;2023-01-28T00:25:57;2.10;99.90
17797;DHT22;55596;53.554;9.916;2023-01-28T00:28:24;2.00;99.90
17797;DHT22;55596;53.554;9.916;2023-01-28T00:30:51;1.80;99.90
17797;DHT22;55596;53.554;9.916;2023-01-28T00:33:18;1.90;99.90
17797;DHT22;55596;53.554;9.916;2023-01-28T00:35:45;1.90;99.90
17797;DHT22;55596;53.554;9.916;2023-01-28T00:38:14;1.90;99.90
17797;DHT22;55596;53.554;9.916;2023-01-28T00:40:41;1.90;99.90
17797;DHT22;55596;53.554;9.916;2023-01-28T00:43:07;1.80;99.90
17797;DHT22;55596;53.554;9.916;2023-01-28T00:45:34;1.80;99.90
17797;DHT22;55596;53.554;9.916;2023-01-28T00:48:01;2.00;99.90
17797;DHT22;55596;53.554;9.916;2023-01-28T00:50:29;1.80;99.90
17797;DHT22;55596;53.554;9.916;2023-01-28T00:52:56;1.80;99.90
17797;DHT22;55596;53.554;9.916;2023-01-28T00:55:24;2.00;99.90
17797;DHT22;55596;53.554;9.916;2023-01-28T00:57:52;1.80;99.90
17797;DHT22;55596;53.554;9.916;2023-01-28T01:00:20;1.70;99.90
17797;DHT22;55596;53.554;9.916;2023-01-28T01:02:50;1.80;99.90
17797;DHT22;55596;53.554;9.916;2023-01-28T01:05:17;1.80;99.90
17797;DHT22;55596;53.554;9.916;2023-01-28T01:07:44;1.80;99.90
17797;DHT22;55596;53.554;9.916;2023-01-28T01:10:13;1.70;99.90
17797;DHT22;55596;53.554;9.916;2023-01-28T01:12:42;1.70;99.90
17797;DHT22;55596;53.554;9.916;2023-01-28T01:15:09;-0.70;99.90
17797;DHT22;55596;53.554;9.916;2023-01-28T01:17:36;1.70;99.90
17797;DHT22;55596;53.554;9.916;2023-01-28T01:20:04;1.70;99.90
17797;DHT22;55596;53.554;9.916;2023-01-28T01:22:32;1.60;99.90
17797;DHT22;55596;53.554;9.916;2023-01-28T01:24:59;1.80;99.90
17797;DHT22;55596;53.554;9.916;2023-01-28T01:27:26;1.70;99.90
17797;DHT22;55596;53.554;9.916;2023-01-28T01:29:54;1.70;99.90
17797;DHT22;55596;53.554;9.916;2023-01-28T01:32:21;1.80;99.90
17797;DHT22;55596;53.554;9.916;2023-01-28T01:34:48;2.00;99.90
17797;DHT22;55596;53.554;9.916;2023-01-28T01:37:14;1.80;99.90
17797;DHT22;55596;53.554;9.916;2023-01-28T01:39:41;1.70;99.90
17797;DHT22;55596;53.554;9.916;2023-01-28T01:42:10;1.70;99.90
17797;DHT22;55596;53.554;9.916;2023-01-28T01:44:57;1.60;99.90
17797;DHT22;55596;53.554;9.916;2023-01-28T01:47:28;1.80;99.90
17797;DHT22;55596;53.554;9.916;2023-01-28T01:49:57;1.50;99.90
17797;DHT22;55596;53.554;9.916;2023-01-28T01:52:29;1.70;99.90
17797;DHT22;55596;53.554;9.916;2023-01-28T01:55:00;1.50;99.90
17797;DHT22;55596;53.554;9.916;2023-01-28T01:57:31;1.50;99.90
17797;DHT22;55596;53.554;9.916;2023-01-28T02:00:03;1.50;99.90
17797;DHT22;55596;53.554;9.916;2023-01-28T02:02:34;1.50;99.90
17797;DHT22;55596;53.554;9.916;2023-01-28T02:05:09;1.50;99.90
17797;DHT22;55596;53.554;9.916;2023-01-28T02:07:42;1.60;99.90
17797;DHT22;55596;53.554;9.916;2023-01-28T02:10:11;1.40;99.90
17797;DHT22;55596;53.554;9.916;2023-01-28T02:12:41;1.50;99.90
17797;DHT22;55596;53.554;9.916;2023-01-28T02:15:13;1.40;99.90
17797;DHT22;55596;53.554;9.916;2023-01-28T02:17:41;1.60;99.90
17797;DHT22;55596;53.554;9.916;2023-01-28T02:20:10;1.40;99.90
17797;DHT22;55596;53.554;9.916;2023-01-28T02:23:04;1.40;99.90
17797;DHT22;55596;53.554;9.916;2023-01-28T02:25:43;1.40;99.90
17797;DHT22;55596;53.554;9.916;2023-01-28T02:28:22;1.20;99.90
17797;DHT22;55596;53.554;9.916;2023-01-28T02:30:57;1.30;99.90
17797;DHT22;55596;53.554;9.916;2023-01-28T02:33:29;1.30;99.90
17797;DHT22;55596;53.554;9.916;2023-01-28T02:36:04;1.30;99.90
17797;DHT22;55596;53.554;9.916;2023-01-28T02:38:38;1.30;99.90
17797;DHT22;55596;53.554;9.916;2023-01-28T02:41:21;1.30;99.90
17797;DHT22;55596;53.554;9.916;2023-01-28T02:43:50;1.30;99.90
17797;DHT22;55596;53.554;9.916;2023-01-28T02:46:21;1.40;99.90
17797;DHT22;55596;53.554;9.916;2023-01-28T02:49:09;1.30;99.90
17797;DHT22;55596;53.554;9.916;2023-01-28T02:51:45;1.20;99.90
17797;DHT22;55596;53.554;9.916;2023-01-28T02:54:21;1.30;99.90
17797;DHT22;55596;53.554;9.916;2023-01-28T02:56:59;1.20;99.90
17797;DHT22;55596;53.554;9.916;2023-01-28T02:59:35;1.20;99.90
17797;DHT22;55596;53.554;9.916;2023-01-28T03:02:13;1.30;99.90
17797;DHT22;55596;53.554;9.916;2023-01-28T03:04:47;1.30;99.90
17797;DHT22;55596;53.554;9.916;2023-01-28T03:07:16;1.40;99.90
17797;DHT22;55596;53.554;9.916;2023-01-28T03:09:46;1.30;99.90
17797;DHT22;55596;53.554;9.916;2023-01-28T03:12:17;1.30;99.90
17797;DHT22;55596;53.554;9.916;2023-01-28T03:15:07;1.30;99.90
17797;DHT22;55596;53.554;9.916;2023-01-28T03:17:57;1.30;99.90
17797;DHT22;55596;53.554;9.916;2023-01-28T03:20:48;1.20;99.90
17797;DHT22;55596;53.554;9.916;2023-01-28T03:23:39;1.10;99.90
17797;DHT22;55596;53.554;9.916;2023-01-28T03:26:26;1.00;99.90
17797;DHT22;55596;53.554;9.916;2023-01-28T03:29:13;1.10;99.90
17797;DHT22;55596;53.554;9.916;2023-01-28T03:32:00;1.00;99.90
17797;DHT22;55596;53.554;9.916;2023-01-28T03:34:45;0.90;99.90
17797;DHT22;55596;53.554;9.916;2023-01-28T03:37:31;2.50;99.90
17797;DHT22;55596;53.554;9.916;2023-01-28T03:40:01;0.90;99.90
17797;DHT22;55596;53.554;9.916;2023-01-28T03:42:30;0.90;99.90
17797;DHT22;55596;53.554;9.916;2023-01-28T03:44:57;0.90;99.90
17797;DHT22;55596;53.554;9.916;2023-01-28T03:47:26;0.80;99.90
17797;DHT22;55596;53.554;9.916;2023-01-28T03:49:55;0.80;99.90
17797;DHT22;55596;53.554;9.916;2023-01-28T03:52:24;2.20;99.90
17797;DHT22;55596;53.554;9.916;2023-01-28T03:54:51;0.90;99.90
17797;DHT22;55596;53.554;9.916;2023-01-28T03:57:20;0.80;99.90
17797;DHT22;55596;53.554;9.916;2023-01-28T03:59:48;0.80;99.90
17797;DHT22;55596;53.554;9.916;2023-01-28T04:02:15;0.70;99.90
17797;DHT22;55596;53.554;9.916;2023-01-28T04:04:44;0.70;99.90
17797;DHT22;55596;53.554;9.916;2023-01-28T04:07:12;0.60;99.90
17797;DHT22;55596;53.554;9.916;2023-01-28T04:09:40;0.80;99.90
17797;DHT22;55596;53.554;9.916;2023-01-28T04:12:08;0.70;99.90
17797;DHT22;55596;53.554;9.916;2023-01-28T04:14:35;0.50;99.90
17797;DHT22;55596;53.554;9.916;2023-01-28T04:17:03;0.30;99.90
17797;DHT22;55596;53.554;9.916;2023-01-28T04:19:32;0.40;99.90
17797;DHT22;55596;53.554;9.916;2023-01-28T04:22:04;0.20;99.90
17797;DHT22;55596;53.554;9.916;2023-01-28T04:24:31;-0.10;99.90
17797;DHT22;55596;53.554;9.916;2023-01-28T04:26:58;0.10;99.90
17797;DHT22;55596;53.554;9.916;2023-01-28T04:29:25;0.00;99.90
17797;DHT22;55596;53.554;9.916;2023-01-28T04:31:52;0.00;99.90
17797;DHT22;55596;53.554;9.916;2023-01-28T04:34:18;-0.30;99.90
17797;DHT22;55596;53.554;9.916;2023-01-28T04:36:45;-0.10;99.90
17797;DHT22;55596;53.554;9.916;2023-01-28T04:39:14;-0.10;99.90
17797;DHT22;55596;53.554;9.916;2023-01-28T04:41:41;-0.20;99.90
17797;DHT22;55596;53.554;9.916;2023-01-28T04:44:08;-0.20;99.90
17797;DHT22;55596;53.554;9.916;2023-01-28T04:46:35;-0.20;99.90
17797;DHT22;55596;53.554;9.916;2023-01-28T04:49:01;-0.30;99.90
17797;DHT22;55596;53.554;9.916;2023-01-28T04:51:28;-0.40;99.90
17797;DHT22;55596;53.554;9.916;2023-01-28T04:53:55;-0.50;99.90
17797;DHT22;55596;53.554;9.916;2023-01-28T04:56:24;-0.40;99.90
17797;DHT22;55596;53.554;9.916;2023-01-28T04:58:51;-0.40;99.90
17797;DHT22;55596;53.554;9.916;2023-01-28T05:01:17;-0.50;99.90
17797;DHT22;55596;53.554;9.916;2023-01-28T05:03:44;1.50;99.90
17797;DHT22;55596;53.554;9.916;2023-01-28T05:06:11;-0.50;99.90
17797;DHT22;55596;53.554;9.916;2023-01-28T05:08:38;-0.50;99.90
17797;DHT22;55596;53.554;9.916;2023-01-28T05:11:05;-0.60;99.90
17797;DHT22;55596;53.554;9.916;2023-01-28T05:13:33;-0.50;99.90
17797;DHT22;55596;53.554;9.916;2023-01-28T05:16:00;0.70;99.90
17797;DHT22;55596;53.554;9.916;2023-01-28T05:18:27;-0.60;99.90
17797;DHT22;55596;53.554;9.916;2023-01-28T05:20:54;-0.70;99.90
17797;DHT22;55596;53.554;9.916;2023-01-28T05:23:21;-0.80;99.90
17797;DHT22;55596;53.554;9.916;2023-01-28T05:25:48;-0.80;99.90
17797;DHT22;55596;53.554;9.916;2023-01-28T05:28:15;-0.80;99.90
17797;DHT22;55596;53.554;9.916;2023-01-28T05:30:43;-1.00;99.90
17797;DHT22;55596;53.554;9.916;2023-01-28T05:33:10;-1.00;99.90
17797;DHT22;55596;53.554;9.916;2023-01-28T05:35:37;-1.10;99.90
17797;DHT22;55596;53.554;9.916;2023-01-28T05:38:04;-1.40;99.90
17797;DHT22;55596;53.554;9.916;2023-01-28T05:40:31;-1.40;99.90
17797;DHT22;55596;53.554;9.916;2023-01-28T05:42:57;-1.40;99.90
17797;DHT22;55596;53.554;9.916;2023-01-28T05:45:24;-1.40;99.90
17797;DHT22;55596;53.554;9.916;2023-01-28T05:47:52;-1.40;99.90
17797;DHT22;55596;53.554;9.916;2023-01-28T05:50:19;-1.50;99.90
17797;DHT22;55596;53.554;9.916;2023-01-28T05:52:46;-1.30;99.90
17797;DHT22;55596;53.554;9.916;2023-01-28T05:55:13;-1.50;99.90
17797;DHT22;55596;53.554;9.916;2023-01-28T05:57:40;-1.50;99.90
17797;DHT22;55596;53.554;9.916;2023-01-28T06:00:10;-1.70;99.90
17797;DHT22;55596;53.554;9.916;2023-01-28T06:02:37;-1.70;99.90
17797;DHT22;55596;53.554;9.916;2023-01-28T06:05:07;-1.70;99.90
17797;DHT22;55596;53.554;9.916;2023-01-28T06:07:34;-1.60;99.90
17797;DHT22;55596;53.554;9.916;2023-01-28T06:10:01;-1.60;99.90
17797;DHT22;55596;53.554;9.916;2023-01-28T06:12:28;-1.70;99.90
17797;DHT22;55596;53.554;9.916;2023-01-28T06:14:55;-1.60;99.90
17797;DHT22;55596;53.554;9.916;2023-01-28T06:17:22;-1.60;99.90
17797;DHT22;55596;53.554;9.916;2023-01-28T06:19:48;-1.60;99.90
17797;DHT22;55596;53.554;9.916;2023-01-28T06:22:17;-1.60;99.90
17797;DHT22;55596;53.554;9.916;2023-01-28T06:24:43;-1.50;99.90
17797;DHT22;55596;53.554;9.916;2023-01-28T06:27:10;-1.50;99.90
17797;DHT22;55596;53.554;9.916;2023-01-28T06:29:37;-1.50;99.90
17797;DHT22;55596;53.554;9.916;2023-01-28T06:32:04;-1.40;99.90
17797;DHT22;55596;53.554;9.916;2023-01-28T06:34:31;-1.40;99.90
17797;DHT22;55596;53.554;9.916;2023-01-28T06:36:58;-1.50;99.90
17797;DHT22;55596;53.554;9.916;2023-01-28T06:39:26;-1.40;99.90
17797;DHT22;55596;53.554;9.916;2023-01-28T06:41:56;-1.50;99.90
17797;DHT22;55596;53.554;9.916;2023-01-28T06:44:23;-1.50;99.90
17797;DHT22;55596;53.554;9.916;2023-01-28T06:46:50;-1.50;99.90
17797;DHT22;55596;53.554;9.916;2023-01-28T06:49:17;-1.50;99.90
17797;DHT22;55596;53.554;9.916;2023-01-28T06:51:45;-1.60;99.90
17797;DHT22;55596;53.554;9.916;2023-01-28T06:54:11;-1.60;99.90
17797;DHT22;55596;53.554;9.916;2023-01-28T06:56:40;-1.60;99.90
17797;DHT22;55596;53.554;9.916;2023-01-28T06:59:07;-1.60;99.90
17797;DHT22;55596;53.554;9.916;2023-01-28T07:01:34;-1.60;99.90
17797;DHT22;55596;53.554;9.916;2023-01-28T07:04:01;-1.60;99.90
17797;DHT22;55596;53.554;9.916;2023-01-28T07:06:28;-3.60;99.90
17797;DHT22;55596;53.554;9.916;2023-01-28T07:08:54;-1.70;99.90
17797;DHT22;55596;53.554;9.916;2023-01-28T07:11:21;-1.80;99.90
17797;DHT22;55596;53.554;9.916;2023-01-28T07:13:49;-1.50;99.90
17797;DHT22;55596;53.554;9.916;2023-01-28T07:16:16;-1.80;99.90
17797;DHT22;55596;53.554;9.916;2023-01-28T07:18:43;-1.80;99.90
17797;DHT22;55596;53.554;9.916;2023-01-28T07:21:10;-1.80;99.90
17797;DHT22;55596;53.554;9.916;2023-01-28T07:23:37;-1.90;99.90
17797;DHT22;55596;53.554;9.916;2023-01-28T07:26:04;-1.90;99.90
17797;DHT22;55596;53.554;9.916;2023-01-28T07:28:31;-1.90;99.90
17797;DHT22;55596;53.554;9.916;2023-01-28T07:31:00;-2.10;99.90
17797;DHT22;55596;53.554;9.916;2023-01-28T07:33:26;-1.80;99.90
17797;DHT22;55596;53.554;9.916;2023-01-28T07:35:53;-1.70;99.90
17797;DHT22;55596;53.554;9.916;2023-01-28T07:38:20;-1.80;99.90
17797;DHT22;55596;53.554;9.916;2023-01-28T07:40:47;-2.00;99.90
17797;DHT22;55596;53.554;9.916;2023-01-28T07:43:14;-2.00;99.90
17797;DHT22;55596;53.554;9.916;2023-01-28T07:45:41;-2.00;99.90
17797;DHT22;55596;53.554;9.916;2023-01-28T07:48:11;-2.00;99.90
17797;DHT22;55596;53.554;9.916;2023-01-28T07:50:38;-2.00;99.90
17797;DHT22;55596;53.554;9.916;2023-01-28T07:53:07;-1.80;99.90
17797;DHT22;55596;53.554;9.916;2023-01-28T07:55:35;-1.70;99.90
17797;DHT22;55596;53.554;9.916;2023-01-28T07:58:04;-1.80;99.90
17797;DHT22;55596;53.554;9.916;2023-01-28T08:00:33;-1.70;99.90
17797;DHT22;55596;53.554;9.916;2023-01-28T08:03:02;-1.70;99.90
17797;DHT22;55596;53.554;9.916;2023-01-28T08:05:37;-1.70;99.90
17797;DHT22;55596;53.554;9.916;2023-01-28T08:08:06;-1.70;99.90
17797;DHT22;55596;53.554;9.916;2023-01-28T08:10:33;-1.60;99.90
17797;DHT22;55596;53.554;9.916;2023-01-28T08:13:00;-1.40;99.90
17797;DHT22;55596;53.554;9.916;2023-01-28T08:15:28;-1.50;99.90
17797;DHT22;55596;53.554;9.916;2023-01-28T08:17:56;-1.70;99.90
17797;DHT22;55596;53.554;9.916;2023-01-28T08:20:26;-1.70;99.90
17797;DHT22;55596;53.554;9.916;2023-01-28T08:23:04;-1.60;99.90
17797;DHT22;55596;53.554;9.916;2023-01-28T08:25:31;-1.80;99.90
17797;DHT22;55596;53.554;9.916;2023-01-28T08:27:58;-1.60;99.90
17797;DHT22;55596;53.554;9.916;2023-01-28T08:30:25;-1.60;99.90
17797;DHT22;55596;53.554;9.916;2023-01-28T08:32:54;-1.60;99.90
17797;DHT22;55596;53.554;9.916;2023-01-28T08:35:21;-1.60;99.90
17797;DHT22;55596;53.554;9.916;2023-01-28T08:37:48;-1.50;99.90
17797;DHT22;55596;53.554;9.916;2023-01-28T08:40:16;-1.30;99.90
17797;DHT22;55596;53.554;9.916;2023-01-28T08:42:46;-1.20;99.90
17797;DHT22;55596;53.554;9.916;2023-01-28T08:45:13;-1.30;99.90
17797;DHT22;55596;53.554;9.916;2023-01-28T08:47:47;-1.20;99.90
17797;DHT22;55596;53.554;9.916;2023-01-28T08:50:14;-0.30;99.90
17797;DHT22;55596;53.554;9.916;2023-01-28T08:52:41;-0.90;99.90
17797;DHT22;55596;53.554;9.916;2023-01-28T08:55:09;-1.10;99.90
17797;DHT22;55596;53.554;9.916;2023-01-28T08:57:38;-0.90;99.90
17797;DHT22;55596;53.554;9.916;2023-01-28T09:00:06;-0.70;99.90
17797;DHT22;55596;53.554;9.916;2023-01-28T09:02:35;-0.70;99.90
17797;DHT22;55596;53.554;9.916;2023-01-28T09:05:02;-0.50;99.90
17797;DHT22;55596;53.554;9.916;2023-01-28T09:07:29;-0.40;99.90
17797;DHT22;55596;53.554;9.916;2023-01-28T09:09:56;-0.40;99.90
17797;DHT22;55596;53.554;9.916;2023-01-28T09:12:23;-0.40;99.90
17797;DHT22;55596;53.554;9.916;2023-01-28T09:14:51;-0.10;99.90
17797;DHT22;55596;53.554;9.916;2023-01-28T09:17:18;-0.10;99.90
17797;DHT22;55596;53.554;9.916;2023-01-28T09:19:45;-0.10;99.90
17797;DHT22;55596;53.554;9.916;2023-01-28T09:22:12;0.10;99.90
17797;DHT22;55596;53.554;9.916;2023-01-28T09:24:39;0.10;99.90
17797;DHT22;55596;53.554;9.916;2023-01-28T09:27:16;0.20;99.90
17797;DHT22;55596;53.554;9.916;2023-01-28T09:29:43;0.20;99.90
17797;DHT22;55596;53.554;9.916;2023-01-28T09:32:11;0.20;99.90
17797;DHT22;55596;53.554;9.916;2023-01-28T09:34:38;0.20;99.90
17797;DHT22;55596;53.554;9.916;2023-01-28T09:37:04;0.40;99.90
17797;DHT22;55596;53.554;9.916;2023-01-28T09:39:31;0.40;99.90
17797;DHT22;55596;53.554;9.916;2023-01-28T09:42:08;0.50;99.90
17797;DHT22;55596;53.554;9.916;2023-01-28T09:44:43;0.60;99.90
17797;DHT22;55596;53.554;9.916;2023-01-28T09:47:24;0.60;99.90
17797;DHT22;55596;53.554;9.916;2023-01-28T09:49:54;0.30;99.90
17797;DHT22;55596;53.554;9.916;2023-01-28T09:52:24;0.60;99.90
17797;DHT22;55596;53.554;9.916;2023-01-28T09:54:55;0.40;99.90
17797;DHT22;55596;53.554;9.916;2023-01-28T09:57:29;0.60;99.90
17797;DHT22;55596;53.554;9.916;2023-01-28T09:59:57;0.50;99.90
17797;DHT22;55596;53.554;9.916;2023-01-28T10:02:36;0.60;99.90
17797;DHT22;55596;53.554;9.916;2023-01-28T10:05:16;0.70;99.90
17797;DHT22;55596;53.554;9.916;2023-01-28T10:07:51;0.90;99.90
17797;DHT22;55596;53.554;9.916;2023-01-28T10:10:26;1.00;99.90
17797;DHT22;55596;53.554;9.916;2023-01-28T10:13:22;1.00;99.90
17797;DHT22;55596;53.554;9.916;2023-01-28T10:16:02;1.10;99.90
17797;DHT22;55596;53.554;9.916;2023-01-28T10:18:44;1.00;99.90
17797;DHT22;55596;53.554;9.916;2023-01-28T10:21:17;1.10;99.90
17797;DHT22;55596;53.554;9.916;2023-01-28T10:23:54;1.00;99.90
17797;DHT22;55596;53.554;9.916;2023-01-28T10:26:24;1.00;99.90
17797;DHT22;55596;53.554;9.916;2023-01-28T10:28:55;1.30;99.90
17797;DHT22;55596;53.554;9.916;2023-01-28T10:31:25;1.20;99.90
17797;DHT22;55596;53.554;9.916;2023-01-28T10:33:55;1.40;99.90
17797;DHT22;55596;53.554;9.916;2023-01-28T10:36:22;1.40;99.90
17797;DHT22;55596;53.554;9.916;2023-01-28T10:38:50;1.20;99.90
17797;DHT22;55596;53.554;9.916;2023-01-28T10:41:20;0.90;99.90
17797;DHT22;55596;53.554;9.916;2023-01-28T10:43:50;0.90;99.90
17797;DHT22;55596;53.554;9.916;2023-01-28T10:46:20;0.80;99.90
17797;DHT22;55596;53.554;9.916;2023-01-28T10:48:55;0.90;99.90
17797;DHT22;55596;53.554;9.916;2023-01-28T10:51:31;0.90;99.90
17797;DHT22;55596;53.554;9.916;2023-01-28T10:53:58;1.30;99.90
17797;DHT22;55596;53.554;9.916;2023-01-28T10:56:27;1.30;99.90
17797;DHT22;55596;53.554;9.916;2023-01-28T10:58:59;1.50;99.90
17797;DHT22;55596;53.554;9.916;2023-01-28T11:01:38;1.50;99.90
17797;DHT22;55596;53.554;9.916;2023-01-28T11:04:15;1.30;99.90
17797;DHT22;55596;53.554;9.916;2023-01-28T11:06:51;1.30;99.90
17797;DHT22;55596;53.554;9.916;2023-01-28T11:09:30;1.00;99.90
17797;DHT22;55596;53.554;9.916;2023-01-28T11:11:57;1.10;99.90
17797;DHT22;55596;53.554;9.916;2023-01-28T11:14:26;1.30;99.90
17797;DHT22;55596;53.554;9.916;2023-01-28T11:16:55;1.40;99.90
17797;DHT22;55596;53.554;9.916;2023-01-28T11:19:32;1.60;99.90
17797;DHT22;55596;53.554;9.916;2023-01-28T11:22:00;1.60;99.90
17797;DHT22;55596;53.554;9.916;2023-01-28T11:24:29;1.30;99.90
17797;DHT22;55596;53.554;9.916;2023-01-28T11:26:58;1.40;99.90
17797;DHT22;55596;53.554;9.916;2023-01-28T11:29:30;1.50;99.90
17797;DHT22;55596;53.554;9.916;2023-01-28T11:31:58;1.90;99.90
17797;DHT22;55596;53.554;9.916;2023-01-28T11:34:29;2.20;99.90
17797;DHT22;55596;53.554;9.916;2023-01-28T11:37:03;2.60;99.90
17797;DHT22;55596;53.554;9.916;2023-01-28T11:39:30;2.60;99.90
17797;DHT22;55596;53.554;9.916;2023-01-28T11:42:10;2.50;99.90
17797;DHT22;55596;53.554;9.916;2023-01-28T11:44:38;2.10;99.90
17797;DHT22;55596;53.554;9.916;2023-01-28T11:47:26;2.30;99.90
17797;DHT22;55596;53.554;9.916;2023-01-28T11:50:09;3.10;99.90
17797;DHT22;55596;53.554;9.916;2023-01-28T11:52:50;2.80;99.90
17797;DHT22;55596;53.554;9.916;2023-01-28T11:55:28;2.70;99.90
17797;DHT22;55596;53.554;9.916;2023-01-28T11:58:08;2.70;99.90
17797;DHT22;55596;53.554;9.916;2023-01-28T12:00:41;3.00;99.90
17797;DHT22;55596;53.554;9.916;2023-01-28T12:03:33;2.90;99.90
17797;DHT22;55596;53.554;9.916;2023-01-28T12:06:30;3.20;99.90
17797;DHT22;55596;53.554;9.916;2023-01-28T12:09:06;3.70;99.90
17797;DHT22;55596;53.554;9.916;2023-01-28T12:11:43;4.20;99.90
17797;DHT22;55596;53.554;9.916;2023-01-28T12:14:36;4.50;99.90
17797;DHT22;55596;53.554;9.916;2023-01-28T12:17:16;4.80;99.90
17797;DHT22;55596;53.554;9.916;2023-01-28T12:19:56;4.30;99.90
17797;DHT22;55596;53.554;9.916;2023-01-28T12:22:38;4.40;99.90
17797;DHT22;55596;53.554;9.916;2023-01-28T12:25:19;4.40;99.90
17797;DHT22;55596;53.554;9.916;2023-01-28T12:27:51;4.20;99.90
17797;DHT22;55596;53.554;9.916;2023-01-28T12:30:30;4.50;99.90
17797;DHT22;55596;53.554;9.916;2023-01-28T12:33:14;5.20;99.90
17797;DHT22;55596;53.554;9.916;2023-01-28T12:35:56;6.00;99.90
17797;DHT22;55596;53.554;9.916;2023-01-28T12:38:41;7.10;99.90
17797;DHT22;55596;53.554;9.916;2023-01-28T12:41:12;6.90;99.90
17797;DHT22;55596;53.554;9.916;2023-01-28T12:43:48;6.00;99.90
17797;DHT22;55596;53.554;9.916;2023-01-28T12:46:25;6.00;99.90
17797;DHT22;55596;53.554;9.916;2023-01-28T12:48:58;6.50;99.90
17797;DHT22;55596;53.554;9.916;2023-01-28T12:51:29;8.30;99.90
17797;DHT22;55596;53.554;9.916;2023-01-28T12:54:03;5.20;99.90
17797;DHT22;55596;53.554;9.916;2023-01-28T12:56:33;5.20;99.90
17797;DHT22;55596;53.554;9.916;2023-01-28T12:59:04;5.10;99.90
17797;DHT22;55596;53.554;9.916;2023-01-28T13:01:38;4.80;99.90
17797;DHT22;55596;53.554;9.916;2023-01-28T13:04:11;5.00;99.90
17797;DHT22;55596;53.554;9.916;2023-01-28T13:06:45;5.10;99.90
17797;DHT22;55596;53.554;9.916;2023-01-28T13:09:19;4.60;99.90
17797;DHT22;55596;53.554;9.916;2023-01-28T13:11:48;4.30;99.90
17797;DHT22;55596;53.554;9.916;2023-01-28T13:14:17;4.20;99.90
17797;DHT22;55596;53.554;9.916;2023-01-28T13:16:45;3.80;99.90
17797;DHT22;55596;53.554;9.916;2023-01-28T13:19:24;3.80;99.90
17797;DHT22;55596;53.554;9.916;2023-01-28T13:21:51;3.80;99.90
17797;DHT22;55596;53.554;9.916;2023-01-28T13:24:30;3.90;99.90
17797;DHT22;55596;53.554;9.916;2023-01-28T13:27:10;4.00;99.90
17797;DHT22;55596;53.554;9.916;2023-01-28T13:29:37;4.00;99.90
17797;DHT22;55596;53.554;9.916;2023-01-28T13:32:27;5.50;99.90
17797;DHT22;55596;53.554;9.916;2023-01-28T13:35:00;6.10;99.90
17797;DHT22;55596;53.554;9.916;2023-01-28T13:37:30;6.90;99.90
17797;DHT22;55596;53.554;9.916;2023-01-28T13:40:05;7.00;99.90
17797;DHT22;55596;53.554;9.916;2023-01-28T13:42:36;7.40;99.90
17797;DHT22;55596;53.554;9.916;2023-01-28T13:45:21;7.00;99.90
17797;DHT22;55596;53.554;9.916;2023-01-28T13:47:51;6.40;99.90
17797;DHT22;55596;53.554;9.916;2023-01-28T13:50:20;5.90;99.90
17797;DHT22;55596;53.554;9.916;2023-01-28T13:52:52;5.60;99.90
17797;DHT22;55596;53.554;9.916;2023-01-28T13:55:24;5.50;99.90
17797;DHT22;55596;53.554;9.916;2023-01-28T14:01:30;5.00;99.90
17797;DHT22;55596;53.554;9.916;2023-01-28T14:07:34;4.30;99.90
17797;DHT22;55596;53.554;9.916;2023-01-28T14:10:16;4.00;99.90
17797;DHT22;55596;53.554;9.916;2023-01-28T14:15:52;3.70;99.90
17797;DHT22;55596;53.554;9.916;2023-01-28T14:18:26;3.50;99.90
17797;DHT22;55596;53.554;9.916;2023-01-28T14:20:55;6.70;99.90
17797;DHT22;55596;53.554;9.916;2023-01-28T14:23:23;3.10;99.90
17797;DHT22;55596;53.554;9.916;2023-01-28T14:26:17;2.90;99.90
17797;DHT22;55596;53.554;9.916;2023-01-28T14:28:57;3.00;99.90
17797;DHT22;55596;53.554;9.916;2023-01-28T14:31:30;3.00;99.90
17797;DHT22;55596;53.554;9.916;2023-01-28T14:34:06;3.00;99.90
17797;DHT22;55596;53.554;9.916;2023-01-28T14:36:37;2.60;99.90
17797;DHT22;55596;53.554;9.916;2023-01-28T14:39:09;3.00;99.90
17797;DHT22;55596;53.554;9.916;2023-01-28T14:41:37;2.90;99.90
17797;DHT22;55596;53.554;9.916;2023-01-28T14:44:06;2.80;99.90
17797;DHT22;55596;53.554;9.916;2023-01-28T14:46:39;2.80;99.90
17797;DHT22;55596;53.554;9.916;2023-01-28T14:49:23;2.90;99.90
17797;DHT22;55596;53.554;9.916;2023-01-28T14:52:08;2.70;99.90
17797;DHT22;55596;53.554;9.916;2023-01-28T14:54:46;2.70;99.90
17797;DHT22;55596;53.554;9.916;2023-01-28T14:57:27;2.80;99.90
17797;DHT22;55596;53.554;9.916;2023-01-28T14:59:59;2.60;99.90
17797;DHT22;55596;53.554;9.916;2023-01-28T15:02:28;2.70;99.90
17797;DHT22;55596;53.554;9.916;2023-01-28T15:05:06;3.90;99.90
17797;DHT22;55596;53.554;9.916;2023-01-28T15:07:33;2.60;99.90
17797;DHT22;55596;53.554;9.916;2023-01-28T15:10:04;5.00;99.90
17797;DHT22;55596;53.554;9.916;2023-01-28T15:12:34;2.80;99.90
17797;DHT22;55596;53.554;9.916;2023-01-28T15:15:11;1.00;99.90
17797;DHT22;55596;53.554;9.916;2023-01-28T15:17:44;2.70;99.90
17797;DHT22;55596;53.554;9.916;2023-01-28T15:20:17;2.70;99.90
17797;DHT22;55596;53.554;9.916;2023-01-28T15:22:44;2.30;99.90
17797;DHT22;55596;53.554;9.916;2023-01-28T15:25:16;2.70;99.90
17797;DHT22;55596;53.554;9.916;2023-01-28T15:27:44;2.60;99.90
17797;DHT22;55596;53.554;9.916;2023-01-28T15:30:21;2.40;99.90
17797;DHT22;55596;53.554;9.916;2023-01-28T15:33:01;2.70;99.90
17797;DHT22;55596;53.554;9.916;2023-01-28T15:35:28;2.10;99.90
17797;DHT22;55596;53.554;9.916;2023-01-28T15:37:57;3.30;99.90
17797;DHT22;55596;53.554;9.916;2023-01-28T15:40:24;1.80;99.90
17797;DHT22;55596;53.554;9.916;2023-01-28T15:42:53;1.80;99.90
17797;DHT22;55596;53.554;9.916;2023-01-28T15:45:24;3.20;99.90
17797;DHT22;55596;53.554;9.916;2023-01-28T15:48:02;1.70;99.90
17797;DHT22;55596;53.554;9.916;2023-01-28T15:50:30;2.10;99.90
17797;DHT22;55596;53.554;9.916;2023-01-28T15:52:57;0.40;99.90
17797;DHT22;55596;53.554;9.916;2023-01-28T15:55:32;1.50;99.90
17797;DHT22;55596;53.554;9.916;2023-01-28T15:58:19;1.50;99.90
17797;DHT22;55596;53.554;9.916;2023-01-28T16:00:48;1.30;99.90
17797;DHT22;55596;53.554;9.916;2023-01-28T16:03:18;1.60;99.90
17797;DHT22;55596;53.554;9.916;2023-01-28T16:05:57;1.30;99.90
17797;DHT22;55596;53.554;9.916;2023-01-28T16:08:28;1.50;99.90
17797;DHT22;55596;53.554;9.916;2023-01-28T16:10:58;1.70;99.90
17797;DHT22;55596;53.554;9.916;2023-01-28T16:13:26;1.70;99.90
17797;DHT22;55596;53.554;9.916;2023-01-28T16:15:56;1.40;99.90
17797;DHT22;55596;53.554;9.916;2023-01-28T16:18:29;1.60;99.90